| time (UTC) | temp F | wind direction | speed knots | gust knots | rain 1hr in | rain 24hr in | rain mn in | humidity % | barometer mb |
| 20260503203510 | 90 | 348 | 0.9 | 7.0 | 0.00 | 0.00 | 0.00 | 26 | 1011.2 |
| 20260503203029 | 89 | 38 | 0.9 | 2.6 | 0.00 | 0.00 | 0.00 | 26 | 1011.3 |
| 20260503202508 | 89 | 360 | 0.0 | 4.3 | 0.00 | 0.00 | 0.00 | 25 | 1011.3 |
| 20260503202012 | 88 | 352 | 0.9 | 5.2 | 0.00 | 0.00 | 0.00 | 26 | 1011.3 |
| 20260503201533 | 88 | 360 | 2.6 | 7.8 | 0.00 | 0.00 | 0.00 | 26 | 1011.4 |
| 20260503201004 | 88 | 360 | 3.5 | 7.8 | 0.00 | 0.00 | 0.00 | 27 | 1011.5 |
| 20260503200505 | 89 | 360 | 0.9 | 3.5 | 0.00 | 0.00 | 0.00 | 28 | 1011.5 |
| 20260503200017 | 88 | 329 | 1.7 | 4.3 | 0.00 | 0.00 | 0.00 | 28 | 1011.7 |
| 20260503195507 | 88 | 317 | 1.7 | 4.3 | 0.00 | 0.00 | 0.00 | 30 | 1011.6 |
| 20260503195009 | 87 | 352 | 1.7 | 5.2 | 0.00 | 0.00 | 0.00 | 30 | 1011.7 |
| 20260503194519 | 88 | 333 | 3.5 | 5.2 | 0.00 | 0.00 | 0.00 | 30 | 1011.7 |
| 20260503194007 | 88 | 293 | 0.0 | 6.1 | 0.00 | 0.00 | 0.00 | 31 | 1011.9 |
| 20260503193508 | 86 | 302 | 0.9 | 6.1 | 0.00 | 0.00 | 0.00 | 31 | 1011.9 |
| 20260503193026 | 87 | 291 | 0.9 | 2.6 | 0.00 | 0.00 | 0.00 | 30 | 1012.0 |
| 20260503192508 | 85 | 272 | 0.0 | 2.6 | 0.00 | 0.00 | 0.00 | 33 | 1012.1 |
| 20260503192008 | 84 | 332 | 0.9 | 2.6 | 0.00 | 0.00 | 0.00 | 33 | 1012.2 |
| 20260503191529 | 84 | 29 | 0.0 | 3.5 | 0.00 | 0.00 | 0.00 | 33 | 1012.2 |
| 20260503191009 | 85 | 338 | 1.7 | 3.5 | 0.00 | 0.00 | 0.00 | 34 | 1012.2 |
| 20260503190512 | 85 | 252 | 0.9 | 2.6 | 0.00 | 0.00 | 0.00 | 34 | 1012.3 |
| 20260503190034 | 84 | 352 | 0.9 | 1.7 | 0.00 | 0.00 | 0.00 | 34 | 1012.4 |
| 20260503185504 | 85 | 352 | 0.0 | 2.6 | 0.00 | 0.00 | 0.00 | 35 | 1012.5 |
| 20260503185009 | 83 | 5 | 0.0 | 2.6 | 0.00 | 0.00 | 0.00 | 36 | 1012.6 |
| 20260503184521 | 83 | 27 | 0.0 | 4.3 | 0.00 | 0.00 | 0.00 | 35 | 1012.7 |
| 20260503184011 | 82 | 316 | 0.9 | 3.5 | 0.00 | 0.00 | 0.00 | 36 | 1012.7 |
| 20260503183511 | 82 | 328 | 1.7 | 3.5 | 0.00 | 0.00 | 0.00 | 38 | 1012.8 |
| 20260503183024 | 82 | 333 | 1.7 | 3.5 | 0.00 | 0.00 | 0.00 | 37 | 1012.8 |
| 20260503182507 | 80 | 352 | 0.9 | 5.2 | 0.00 | 0.00 | 0.00 | 39 | 1012.8 |
| 20260503182010 | 80 | 119 | 0.0 | 6.1 | 0.00 | 0.00 | 0.00 | 39 | 1012.9 |
| 20260503181525 | 80 | 9 | 1.7 | 6.1 | 0.00 | 0.00 | 0.00 | 39 | 1012.9 |
| 20260503181010 | 78 | 309 | 0.9 | 3.5 | 0.00 | 0.00 | 0.00 | 40 | 1012.9 |
| 20260503180508 | 79 | 149 | 0.9 | 3.5 | 0.00 | 0.00 | 0.00 | 40 | 1012.9 |
| 20260503180030 | 79 | 69 | 0.0 | 2.6 | 0.00 | 0.00 | 0.00 | 41 | 1012.9 |
| 20260503175507 | 79 | 68 | 0.0 | 3.5 | 0.00 | 0.00 | 0.00 | 43 | 1013.0 |
| 20260503175013 | 78 | 320 | 0.0 | 3.5 | 0.00 | 0.00 | 0.00 | 42 | 1013.0 |
| 20260503174529 | 77 | 344 | 1.7 | 3.5 | 0.00 | 0.00 | 0.00 | 44 | 1013.1 |
| 20260503174010 | 77 | 352 | 0.0 | 1.7 | 0.00 | 0.00 | 0.00 | 44 | 1013.1 |
| 20260503173505 | 78 | 316 | 0.0 | 1.7 | 0.00 | 0.00 | 0.00 | 44 | 1013.2 |
| 20260503173020 | 78 | 321 | 0.0 | 1.7 | 0.00 | 0.00 | 0.00 | 46 | 1013.3 |
| 20260503172509 | 75 | 304 | 0.0 | 1.7 | 0.00 | 0.00 | 0.00 | 49 | 1013.2 |
| 20260503172013 | 74 | 282 | 0.0 | 2.6 | 0.00 | 0.00 | 0.00 | 48 | 1013.2 |
| 20260503171523 | 75 | 309 | 0.9 | 2.6 | 0.00 | 0.00 | 0.00 | 51 | 1013.2 |
| 20260503171008 | 74 | 348 | 0.0 | 1.7 | 0.00 | 0.00 | 0.00 | 53 | 1013.2 |
| 20260503170508 | 73 | 240 | 0.0 | 1.7 | 0.00 | 0.00 | 0.00 | 52 | 1013.2 |
| 20260503151008 | 62 | 107 | 0.0 | 0.0 | 0.00 | 0.00 | 0.00 | 78 | 1013.7 |
| 20260503150507 | 61 | 107 | 0.0 | 0.0 | 0.00 | 0.00 | 0.00 | 81 | 1013.7 |
| 20260503131007 | 51 | 26 | 0.0 | 0.0 | 0.00 | 0.00 | 0.00 | 90 | 1013.3 |
| 20260503130506 | 51 | 26 | 0.0 | 0.0 | 0.00 | 0.00 | 0.00 | 90 | 1013.2 |
| 20260503110506 | 52 | 109 | 0.0 | 0.0 | 0.00 | 0.00 | 0.00 | 90 | 1013.6 |
| 20260503090508 | 55 | 109 | 0.0 | 1.7 | 0.00 | 0.00 | 0.00 | 88 | 1014.0 |
| 20260503081542 | 56 | 188 | 0.0 | 1.7 | 0.00 | 0.00 | 0.00 | 87 | 1014.0 |
| 20260503081010 | 56 | 188 | 0.0 | 1.7 | 0.00 | 0.00 | 0.00 | 87 | 1014.1 |
| 20260503080512 | 56 | 189 | 0.0 | 1.7 | 0.00 | 0.00 | 0.00 | 87 | 1014.2 |
| 20260503072508 | 57 | 262 | 0.0 | 0.9 | 0.00 | 0.00 | 0.00 | 84 | 1014.2 |
| 20260503072006 | 57 | 262 | 0.0 | 1.7 | 0.00 | 0.00 | 0.00 | 85 | 1014.2 |
| 20260503071534 | 57 | 262 | 0.0 | 1.7 | 0.00 | 0.00 | 0.00 | 84 | 1014.2 |
| 20260503071013 | 58 | 280 | 0.0 | 0.0 | 0.00 | 0.00 | 0.00 | 85 | 1014.2 |
| 20260503070504 | 58 | 280 | 0.0 | 1.7 | 0.00 | 0.00 | 0.00 | 85 | 1014.2 |
| 20260503055003 | 60 | 229 | 0.0 | 1.7 | 0.00 | 0.00 | 0.00 | 80 | 1014.1 |
| 20260503054514 | 60 | 237 | 0.0 | 1.7 | 0.00 | 0.00 | 0.00 | 80 | 1014.0 |
| 20260503054006 | 60 | 149 | 0.0 | 1.7 | 0.00 | 0.00 | 0.00 | 81 | 1014.1 |
| 20260503053505 | 60 | 302 | 0.0 | 1.7 | 0.00 | 0.00 | 0.00 | 80 | 1013.9 |
| 20260503053019 | 60 | 218 | 0.0 | 1.7 | 0.00 | 0.00 | 0.00 | 80 | 1014.0 |
| 20260503052511 | 60 | 217 | 0.0 | 1.7 | 0.00 | 0.00 | 0.00 | 80 | 1014.1 |
| 20260503052010 | 60 | 335 | 0.0 | 1.7 | 0.00 | 0.00 | 0.00 | 79 | 1014.1 |
| 20260503051519 | 61 | 325 | 0.0 | 1.7 | 0.00 | 0.00 | 0.00 | 79 | 1014.1 |
| 20260503051006 | 61 | 360 | 0.0 | 1.7 | 0.00 | 0.00 | 0.00 | 78 | 1014.3 |
| 20260503050507 | 62 | 90 | 0.0 | 1.7 | 0.00 | 0.00 | 0.00 | 77 | 1014.6 |
| 20260503050024 | 62 | 44 | 0.0 | 1.7 | 0.00 | 0.00 | 0.00 | 77 | 1014.6 |
| 20260503045503 | 62 | 9 | 0.0 | 1.7 | 0.00 | 0.00 | 0.00 | 76 | 1014.4 |
| 20260503045005 | 62 | 9 | 0.0 | 1.7 | 0.00 | 0.00 | 0.00 | 77 | 1014.3 |
| 20260503044514 | 62 | 350 | 0.9 | 1.7 | 0.00 | 0.00 | 0.00 | 76 | 1014.2 |
| 20260503044005 | 62 | 312 | 0.0 | 1.7 | 0.00 | 0.00 | 0.00 | 76 | 1014.2 |
| 20260503043502 | 62 | 333 | 0.0 | 1.7 | 0.00 | 0.00 | 0.00 | 77 | 1014.1 |
| 20260503043014 | 62 | 346 | 0.0 | 1.7 | 0.00 | 0.00 | 0.00 | 77 | 1014.1 |
| 20260503042505 | 62 | 261 | 0.0 | 1.7 | 0.00 | 0.00 | 0.00 | 76 | 1014.2 |
| 20260503042010 | 62 | 237 | 0.0 | 1.7 | 0.00 | 0.00 | 0.00 | 76 | 1014.3 |
| 20260503041520 | 62 | 237 | 0.0 | 1.7 | 0.00 | 0.00 | 0.00 | 75 | 1014.4 |
| 20260503041005 | 63 | 237 | 0.0 | 0.0 | 0.00 | 0.00 | 0.00 | 74 | 1014.4 |
| 20260503040509 | 63 | 237 | 0.0 | 1.7 | 0.00 | 0.00 | 0.00 | 74 | 1014.4 |
| 20260503040022 | 63 | 237 | 0.0 | 1.7 | 0.00 | 0.00 | 0.00 | 74 | 1014.3 |
| 20260503035506 | 64 | 237 | 0.0 | 1.7 | 0.00 | 0.00 | 0.00 | 73 | 1014.2 |
| 20260503035014 | 64 | 237 | 0.0 | 1.7 | 0.00 | 0.00 | 0.00 | 73 | 1014.2 |
| 20260503034526 | 64 | 230 | 0.0 | 1.7 | 0.00 | 0.00 | 0.00 | 73 | 1014.1 |
| 20260503034003 | 64 | 352 | 0.0 | 1.7 | 0.00 | 0.00 | 0.00 | 72 | 1014.0 |
| 20260503033503 | 64 | 360 | 0.0 | 1.7 | 0.00 | 0.00 | 0.00 | 72 | 1014.0 |
| 20260503033011 | 64 | 231 | 0.0 | 2.6 | 0.00 | 0.00 | 0.00 | 72 | 1014.1 |
| 20260503032502 | 64 | 182 | 0.9 | 3.5 | 0.00 | 0.00 | 0.00 | 71 | 1013.8 |
| 20260503032005 | 65 | 5 | 0.9 | 3.5 | 0.00 | 0.00 | 0.00 | 71 | 1013.6 |
| 20260503031516 | 65 | 22 | 1.7 | 2.6 | 0.00 | 0.00 | 0.00 | 71 | 1013.9 |
| 20260503031006 | 65 | 189 | 0.9 | 1.7 | 0.00 | 0.00 | 0.00 | 71 | 1014.0 |
| 20260503030511 | 65 | 351 | 0.0 | 1.7 | 0.00 | 0.00 | 0.00 | 71 | 1013.8 |
| 20260503030019 | 65 | 265 | 0.0 | 1.7 | 0.00 | 0.00 | 0.00 | 71 | 1013.8 |
| 20260503025507 | 65 | 258 | 0.0 | 2.6 | 0.00 | 0.00 | 0.00 | 70 | 1013.8 |
| 20260503025006 | 65 | 210 | 0.9 | 6.1 | 0.00 | 0.00 | 0.00 | 69 | 1013.8 |
| 20260503024525 | 65 | 175 | 1.7 | 8.7 | 0.00 | 0.00 | 0.00 | 69 | 1013.7 |
| 20260503024010 | 65 | 153 | 1.7 | 8.7 | 0.00 | 0.00 | 0.00 | 69 | 1013.8 |
| 20260503023510 | 66 | 163 | 3.5 | 8.7 | 0.00 | 0.00 | 0.00 | 69 | 1013.8 |
| 20260503023007 | 66 | 200 | 3.5 | 12.2 | 0.00 | 0.00 | 0.00 | 69 | 1013.9 |
| 20260503022503 | 66 | 261 | 3.5 | 12.2 | 0.00 | 0.00 | 0.00 | 68 | 1013.8 |
| 20260503022010 | 67 | 101 | 4.3 | 10.4 | 0.00 | 0.00 | 0.00 | 67 | 1013.9 |
| 20260503021514 | 68 | 121 | 4.3 | 9.6 | 0.00 | 0.00 | 0.00 | 65 | 1013.8 |
| 20260503021006 | 68 | 190 | 4.3 | 9.6 | 0.00 | 0.00 | 0.00 | 64 | 1013.9 |
| 20260503020509 | 69 | 206 | 4.3 | 7.8 | 0.00 | 0.00 | 0.00 | 63 | 1013.8 |
| 20260503020018 | 70 | 186 | 1.7 | 5.2 | 0.00 | 0.00 | 0.00 | 62 | 1013.4 |
| 20260503015507 | 70 | 175 | 1.7 | 3.5 | 0.00 | 0.00 | 0.00 | 61 | 1013.2 |
| 20260503015005 | 71 | 155 | 0.9 | 2.6 | 0.00 | 0.00 | 0.00 | 59 | 1013.1 |
| 20260503014522 | 71 | 159 | 0.9 | 1.7 | 0.00 | 0.00 | 0.00 | 59 | 1013.1 |
| 20260503014010 | 71 | 180 | 0.9 | 1.7 | 0.00 | 0.00 | 0.00 | 59 | 1013.0 |
| 20260503013511 | 71 | 127 | 0.0 | 1.7 | 0.00 | 0.00 | 0.00 | 59 | 1013.0 |
| 20260503013035 | 71 | 184 | 0.0 | 1.7 | 0.00 | 0.00 | 0.00 | 59 | 1013.0 |
| 20260503012510 | 71 | 110 | 0.0 | 1.7 | 0.00 | 0.00 | 0.00 | 58 | 1013.0 |
| 20260503012016 | 71 | 136 | 0.0 | 1.7 | 0.00 | 0.00 | 0.00 | 58 | 1013.0 |
| 20260503011512 | 71 | 120 | 0.0 | 1.7 | 0.00 | 0.00 | 0.00 | 58 | 1012.9 |
| 20260503011004 | 71 | 101 | 0.0 | 1.7 | 0.00 | 0.00 | 0.00 | 59 | 1013.0 |
| 20260503010505 | 71 | 136 | 0.0 | 1.7 | 0.00 | 0.00 | 0.00 | 59 | 1013.0 |
| 20260503010016 | 71 | 117 | 0.9 | 1.7 | 0.00 | 0.00 | 0.00 | 57 | 1013.0 |
| 20260503005506 | 71 | 315 | 0.0 | 1.7 | 0.00 | 0.00 | 0.00 | 57 | 1013.0 |
| 20260503005007 | 71 | 311 | 0.0 | 1.7 | 0.00 | 0.00 | 0.00 | 59 | 1013.0 |
| 20260503004522 | 71 | 220 | 0.0 | 1.7 | 0.00 | 0.00 | 0.00 | 58 | 1013.0 |
| 20260503004005 | 71 | 288 | 0.9 | 1.7 | 0.00 | 0.00 | 0.00 | 57 | 1013.1 |
| 20260503003509 | 71 | 291 | 0.0 | 2.6 | 0.00 | 0.00 | 0.00 | 57 | 1013.0 |
| 20260503003025 | 71 | 344 | 0.0 | 2.6 | 0.00 | 0.00 | 0.00 | 58 | 1013.1 |
| 20260503002515 | 70 | 317 | 0.0 | 2.6 | 0.00 | 0.00 | 0.00 | 59 | 1013.1 |
| 20260503002012 | 70 | 215 | 0.9 | 2.6 | 0.00 | 0.00 | 0.00 | 58 | 1013.2 |
| 20260503001527 | 71 | 299 | 0.9 | 2.6 | 0.00 | 0.00 | 0.00 | 58 | 1013.2 |
| 20260503001017 | 71 | 351 | 0.0 | 2.6 | 0.00 | 0.00 | 0.00 | 57 | 1013.2 |
| 20260503000505 | 70 | 332 | 0.0 | 2.6 | 0.00 | 0.00 | 0.00 | 57 | 1013.3 |
| 20260503000015 | 71 | 241 | 0.9 | 3.5 | 0.00 | 0.00 | 0.00 | 57 | 1013.3 |
| 20260502235507 | 70 | 321 | 0.9 | 3.5 | 0.00 | 0.00 | 0.00 | 57 | 1013.3 |
| 20260502235006 | 71 | 334 | 0.9 | 3.5 | 0.00 | 0.00 | 0.00 | 57 | 1013.3 |
| 20260502234520 | 70 | 352 | 1.7 | 3.5 | 0.00 | 0.00 | 0.00 | 57 | 1013.4 |
| 20260502234011 | 71 | 32 | 0.9 | 2.6 | 0.00 | 0.00 | 0.00 | 57 | 1013.4 |
| 20260502233508 | 71 | 307 | 0.0 | 5.2 | 0.00 | 0.00 | 0.00 | 56 | 1013.4 |
| 20260502233022 | 70 | 312 | 0.0 | 5.2 | 0.00 | 0.00 | 0.00 | 57 | 1013.5 |
| 20260502232513 | 71 | 5 | 0.9 | 4.3 | 0.00 | 0.00 | 0.00 | 57 | 1013.6 |
| 20260502232009 | 71 | 236 | 1.7 | 4.3 | 0.00 | 0.00 | 0.00 | 56 | 1013.6 |
| 20260502231529 | 71 | 12 | 0.9 | 5.2 | 0.00 | 0.00 | 0.00 | 55 | 1013.6 |
| 20260502231012 | 72 | 345 | 1.7 | 5.2 | 0.00 | 0.00 | 0.00 | 54 | 1013.7 |
| 20260502230511 | 72 | 305 | 1.7 | 3.5 | 0.00 | 0.00 | 0.00 | 53 | 1013.7 |
| 20260502230028 | 72 | 281 | 0.0 | 3.5 | 0.00 | 0.00 | 0.00 | 54 | 1013.7 |
| 20260502225510 | 71 | 111 | 0.9 | 3.5 | 0.00 | 0.00 | 0.00 | 54 | 1013.8 |
| 20260502225005 | 72 | 324 | 1.7 | 3.5 | 0.00 | 0.00 | 0.00 | 54 | 1013.9 |
| 20260502224515 | 71 | 351 | 0.9 | 3.5 | 0.00 | 0.00 | 0.00 | 56 | 1014.0 |
| 20260502224007 | 70 | 308 | 0.9 | 3.5 | 0.00 | 0.00 | 0.00 | 56 | 1014.1 |
| 20260502223511 | 69 | 337 | 0.0 | 3.5 | 0.00 | 0.00 | 0.00 | 57 | 1014.2 |
| 20260502223021 | 70 | 331 | 1.7 | 2.6 | 0.00 | 0.00 | 0.00 | 57 | 1014.3 |
| 20260502222507 | 69 | 300 | 0.0 | 2.6 | 0.00 | 0.00 | 0.00 | 58 | 1014.3 |
| 20260502222009 | 69 | 310 | 0.9 | 2.6 | 0.00 | 0.00 | 0.00 | 56 | 1014.4 |
| 20260502221532 | 70 | 344 | 0.9 | 3.5 | 0.00 | 0.00 | 0.00 | 55 | 1014.3 |
| 20260502221008 | 69 | 10 | 0.0 | 3.5 | 0.00 | 0.00 | 0.00 | 58 | 1014.4 |
| 20260502220512 | 69 | 9 | 0.9 | 2.6 | 0.00 | 0.00 | 0.00 | 58 | 1014.6 |
| 20260502220026 | 68 | 135 | 0.0 | 2.6 | 0.00 | 0.00 | 0.00 | 59 | 1014.7 |
| 20260502215509 | 67 | 192 | 0.9 | 3.5 | 0.00 | 0.00 | 0.00 | 60 | 1014.8 |
| 20260502215012 | 67 | 179 | 0.9 | 3.5 | 0.00 | 0.00 | 0.00 | 60 | 1014.8 |
| 20260502214528 | 67 | 306 | 0.9 | 4.3 | 0.00 | 0.00 | 0.00 | 60 | 1014.9 |
| 20260502214014 | 67 | 295 | 0.9 | 4.3 | 0.00 | 0.00 | 0.00 | 58 | 1015.1 |
| 20260502213507 | 67 | 258 | 1.7 | 3.5 | 0.00 | 0.00 | 0.00 | 61 | 1015.1 |
| 20260502213019 | 67 | 352 | 1.7 | 4.3 | 0.00 | 0.00 | 0.00 | 62 | 1015.1 |
| 20260502212507 | 66 | 84 | 0.9 | 4.3 | 0.00 | 0.00 | 0.00 | 62 | 1015.3 |
| 20260502212011 | 66 | 5 | 1.7 | 4.3 | 0.00 | 0.00 | 0.00 | 62 | 1015.4 |
| 20260502211524 | 65 | 129 | 1.7 | 4.3 | 0.00 | 0.00 | 0.00 | 62 | 1015.5 |
| 20260502211008 | 66 | 201 | 1.7 | 4.3 | 0.00 | 0.00 | 0.00 | 62 | 1015.5 |
| 20260502210509 | 65 | 161 | 0.9 | 3.5 | 0.00 | 0.00 | 0.00 | 63 | 1015.6 |
| 20260502210029 | 65 | 321 | 0.9 | 3.5 | 0.00 | 0.00 | 0.00 | 63 | 1015.6 |
| 20260502205509 | 65 | 360 | 1.7 | 3.5 | 0.00 | 0.00 | 0.00 | 62 | 1015.7 |
| 20260502205013 | 65 | 339 | 1.7 | 4.3 | 0.00 | 0.00 | 0.00 | 63 | 1015.7 |
| 20260502204529 | 63 | 283 | 1.7 | 4.3 | 0.00 | 0.00 | 0.00 | 66 | 1015.8 |
| 20260502204011 | 63 | 331 | 0.9 | 3.5 | 0.00 | 0.00 | 0.00 | 69 | 1015.9 |